Aviation Weather


METAR: 2021/10/25 16:50 ENVA 251650Z VRB02KT CAVOK 09/05 Q1001 NOSIG RMK WIND 670FT 10003KT

Vær-rapport

METAR for
ENVA utstedt den 25/10-2021 klokka 16:50 UTC:


Vind: Variabel med en vindhastighet på 2 knop (1 m/s, 4 km/t, Styrke 1)
Vær: God sikt og ingen lave skyer
Temperatur: 9°C med duggpunkt på 5°C. Temperatur føles som 9.0°C.
Luftfuktigheten er: 76%.
Lufttrykk: 1001 hPa.
Vær: Ingen betydelige endringer
Bemerkning:
Vind: I en høyde av 670 fot er det ?stlig flau vind fra 100 grader med en vindhastighet på 3 knop (2 m/s, 6 km/t, Styrke 1)


TAF: 2021/10/25 12:57 TAF ENVA 251100Z 2512/2612 11007KT 9999 FEW040 SCT080 TEMPO 2516/2522 SHRA SCT030CB

Vær-prognose

Værprognose for
ENVA utstedt den 25/10-2021 klokka 12:57 UTC:


Varsel er gyldig mellom den 25. klokka 12:00 og den 26. klokka 12:00
Vind: ?stlig lett bris fra 110 grader med en vindhastighet på 7 knop (4 m/s, 13 km/t, Styrke 3)
Sikt: Bedre enn 10 km.
Skyer: Få skyer (1/8 - 2/8) oppe i 4000 fot. (1,219 meter)
Skyer: Spredte skyer (3/8 - 4/8) oppe i 8000 fot. (2,438 meter)

Mellom den 25. klokka 16:00 og den 25. klokka 22:00 vil det av og til bli:
Vær: Regnbyge
Skyer: Spredte skyer (3/8 - 4/8) oppe i 3000 fot. (914 meter) med cumulonimbus.